Time;durP1;ratioP1;P1;durP2;ratioP2;P2;SDS_P1;SDS_P2;PMS_P1;PMS_P2;Temp;Humidity;BMP_temperature;BMP_pressure;BME280_temperature;BME280_humidity;BME280_pressure;Samples;Min_cycle;Max_cycle;Signal;HPM_P1;HPM_P2
2022/07/26 00:00:31;;;;;;;0.50;0.50;;;20.50;99.90;;;;;;5052315;28;20221;-71
2022/07/26 00:03:19;;;;;;;0.50;0.50;;;20.40;99.90;;;;;;5052856;28;20213;-73
2022/07/26 00:06:08;;;;;;;0.40;0.40;;;20.30;99.90;;;;;;5052667;28;20226;-73
2022/07/26 00:08:56;;;;;;;0.40;0.40;;;20.30;99.90;;;;;;5052258;28;20193;-71
2022/07/26 00:11:45;;;;;;;0.40;0.40;;;20.30;99.90;;;;;;5052583;28;20217;-72
2022/07/26 00:14:33;;;;;;;0.40;0.40;;;20.40;99.90;;;;;;5052093;28;20674;-72
2022/07/26 00:17:22;;;;;;;0.82;0.82;;;20.40;99.90;;;;;;5052211;28;20221;-73
2022/07/26 00:20:10;;;;;;;0.40;0.40;;;20.40;99.90;;;;;;5051935;28;20213;-72
2022/07/26 00:22:58;;;;;;;0.50;0.50;;;20.40;99.90;;;;;;5051826;28;20208;-73
2022/07/26 00:25:47;;;;;;;0.40;0.40;;;20.40;99.90;;;;;;5051693;28;20227;-72
2022/07/26 00:28:36;;;;;;;0.40;0.40;;;20.50;99.90;;;;;;5052098;28;20197;-73
2022/07/26 00:31:25;;;;;;;0.40;0.40;;;20.50;99.90;;;;;;5051497;28;20674;-73
2022/07/26 00:34:13;;;;;;;0.40;0.40;;;20.50;99.90;;;;;;5052053;28;20692;-72
2022/07/26 00:37:01;;;;;;;1.33;1.23;;;20.40;99.90;;;;;;5051965;28;20220;-72
2022/07/26 00:39:49;;;;;;;0.40;0.40;;;20.40;99.90;;;;;;5050992;28;20225;-71
2022/07/26 00:42:37;;;;;;;0.40;0.40;;;20.30;99.90;;;;;;5051413;28;20204;-73
2022/07/26 00:45:28;;;;;;;0.82;0.82;;;20.30;99.90;;;;;;5051999;28;20201;-69
2022/07/26 00:48:17;;;;;;;0.50;0.50;;;20.40;99.90;;;;;;5031764;28;20216;-70
2022/07/26 00:51:05;;;;;;;2.72;0.88;;;20.30;99.90;;;;;;5031009;28;20569;-71
2022/07/26 00:53:53;;;;;;;0.40;0.40;;;20.30;99.90;;;;;;5031344;28;20206;-71
2022/07/26 00:56:41;;;;;;;0.40;0.40;;;20.30;99.90;;;;;;5031565;28;20218;-70
2022/07/26 00:59:30;;;;;;;0.50;0.50;;;20.20;99.90;;;;;;5031405;28;20215;-70
2022/07/26 01:02:19;;;;;;;0.57;0.57;;;20.10;99.90;;;;;;5031247;28;20202;-73
2022/07/26 01:05:08;;;;;;;0.40;0.40;;;20.10;99.90;;;;;;5031643;28;20288;-70
2022/07/26 01:07:56;;;;;;;0.88;0.80;;;20.00;99.90;;;;;;5031596;28;20608;-70
2022/07/26 01:10:44;;;;;;;0.43;0.43;;;20.00;99.90;;;;;;5031429;28;20201;-70
2022/07/26 01:13:33;;;;;;;1.55;1.45;;;20.00;99.90;;;;;;5031664;28;20202;-71
2022/07/26 01:16:22;;;;;;;0.82;0.82;;;20.00;99.90;;;;;;5031448;28;20364;-73
2022/07/26 01:19:12;;;;;;;0.47;0.47;;;19.90;99.90;;;;;;5031295;28;20206;-72
2022/07/26 01:22:01;;;;;;;0.50;0.50;;;19.90;99.90;;;;;;5031708;28;20229;-73
2022/07/26 01:24:49;;;;;;;0.50;0.50;;;19.90;99.90;;;;;;5031445;28;20209;-73
2022/07/26 01:27:38;;;;;;;0.50;0.50;;;19.90;99.90;;;;;;5031887;28;20729;-73
2022/07/26 01:30:27;;;;;;;0.40;0.40;;;19.90;99.90;;;;;;5031020;28;20205;-70
2022/07/26 01:33:15;;;;;;;0.40;0.40;;;19.90;99.90;;;;;;5031262;28;20198;-72
2022/07/26 01:36:03;;;;;;;0.40;0.40;;;19.90;99.90;;;;;;5031170;28;20218;-73
2022/07/26 01:38:53;;;;;;;0.40;0.40;;;19.90;99.90;;;;;;5030596;28;20206;-72
2022/07/26 01:41:42;;;;;;;0.40;0.40;;;20.00;99.90;;;;;;5031124;28;20225;-73
2022/07/26 01:44:30;;;;;;;0.50;0.50;;;19.90;99.90;;;;;;5031133;28;20224;-72
2022/07/26 01:47:18;;;;;;;0.73;0.73;;;19.90;99.90;;;;;;5045975;28;20241;-72
2022/07/26 01:50:08;;;;;;;0.50;0.50;;;19.90;99.90;;;;;;5053315;28;20205;-70
2022/07/26 01:52:56;;;;;;;0.40;0.40;;;20.00;99.90;;;;;;5050904;28;20197;-73
2022/07/26 01:55:46;;;;;;;0.50;0.50;;;19.90;99.90;;;;;;5050989;28;20229;-72
2022/07/26 01:58:34;;;;;;;0.40;0.40;;;19.90;99.90;;;;;;5050875;28;20205;-71
2022/07/26 02:01:22;;;;;;;0.40;0.40;;;19.90;99.90;;;;;;5051221;28;20611;-72
2022/07/26 02:07:33;;;;;;;0.40;0.40;;;19.80;99.90;;;;;;5051470;28;20736;-72
2022/07/26 02:10:22;;;;;;;3.17;2.90;;;19.80;99.90;;;;;;5058028;28;20208;-70
2022/07/26 02:13:11;;;;;;;0.40;0.40;;;19.70;99.90;;;;;;5062911;28;20231;-73
2022/07/26 02:16:00;;;;;;;0.45;0.45;;;19.60;99.90;;;;;;5064280;28;20221;-73
2022/07/26 02:18:48;;;;;;;0.40;0.40;;;19.60;99.90;;;;;;5063107;28;20211;-69
2022/07/26 02:21:36;;;;;;;0.40;0.40;;;19.50;99.90;;;;;;5062869;28;20244;-70
2022/07/26 02:24:27;;;;;;;1.15;1.15;;;19.40;99.90;;;;;;5062707;28;20202;-71
2022/07/26 02:27:16;;;;;;;0.47;0.47;;;19.30;99.90;;;;;;5063321;28;20220;-70
2022/07/26 02:30:07;;;;;;;0.40;0.40;;;19.20;99.90;;;;;;5064075;28;20223;-73
2022/07/26 02:32:55;;;;;;;0.40;0.40;;;19.10;99.90;;;;;;5068898;28;20206;-71
2022/07/26 02:35:44;;;;;;;0.40;0.40;;;19.00;99.90;;;;;;5066383;28;20202;-72
2022/07/26 02:38:32;;;;;;;0.40;0.40;;;19.00;99.90;;;;;;5067964;28;20232;-70
2022/07/26 02:41:20;;;;;;;0.50;0.50;;;18.90;99.90;;;;;;5067176;28;20247;-71
2022/07/26 02:44:08;;;;;;;0.50;0.50;;;18.90;99.90;;;;;;5069315;28;20202;-68
2022/07/26 02:46:59;;;;;;;0.40;0.40;;;18.90;99.90;;;;;;5068757;28;20225;-71
2022/07/26 02:49:47;;;;;;;0.40;0.40;;;18.90;99.90;;;;;;5067963;28;20201;-72
2022/07/26 02:52:35;;;;;;;0.40;0.40;;;18.80;99.90;;;;;;5060050;28;20756;-73
2022/07/26 02:55:25;;;;;;;0.40;0.40;;;18.80;99.90;;;;;;5067626;28;20227;-72
2022/07/26 02:58:13;;;;;;;0.50;0.50;;;18.80;99.90;;;;;;5053501;28;20201;-70
2022/07/26 03:01:01;;;;;;;0.40;0.40;;;18.70;99.90;;;;;;5053087;28;20228;-72
2022/07/26 03:03:51;;;;;;;0.40;0.40;;;18.70;99.90;;;;;;5053373;28;20193;-73
2022/07/26 03:06:39;;;;;;;0.40;0.40;;;18.60;99.90;;;;;;5053303;28;20222;-73
2022/07/26 03:09:27;;;;;;;0.70;0.70;;;18.60;99.90;;;;;;5052960;28;20201;-73
2022/07/26 03:12:15;;;;;;;0.63;0.63;;;18.60;99.90;;;;;;5053610;28;20198;-72
2022/07/26 03:15:04;;;;;;;0.50;0.50;;;18.50;99.90;;;;;;5054019;28;20193;-72
2022/07/26 03:17:54;;;;;;;0.50;0.50;;;18.50;99.90;;;;;;5053114;28;20243;-70
2022/07/26 03:20:43;;;;;;;0.50;0.50;;;18.50;99.90;;;;;;5051591;28;20216;-71
2022/07/26 03:23:33;;;;;;;0.80;0.60;;;18.40;99.90;;;;;;5052868;28;20562;-72
2022/07/26 03:26:21;;;;;;;0.50;0.50;;;18.40;99.90;;;;;;5052741;28;20232;-70
2022/07/26 03:29:09;;;;;;;0.50;0.50;;;18.40;99.90;;;;;;5053730;28;20701;-72
2022/07/26 03:31:57;;;;;;;0.40;0.40;;;18.30;99.90;;;;;;5052973;28;20216;-71
2022/07/26 03:34:45;;;;;;;0.40;0.40;;;18.30;99.90;;;;;;5052808;28;20210;-73
2022/07/26 03:37:35;;;;;;;0.40;0.40;;;18.30;99.90;;;;;;5052811;28;20224;-71
2022/07/26 03:40:33;;;;;;;0.50;0.50;;;18.30;99.90;;;;;;5052079;28;20292;-72
2022/07/26 03:43:21;;;;;;;0.40;0.40;;;18.30;99.90;;;;;;5052993;28;20439;-72
2022/07/26 03:46:10;;;;;;;0.50;0.50;;;18.20;99.90;;;;;;5052790;28;20221;-73
2022/07/26 03:48:58;;;;;;;0.40;0.40;;;18.30;99.90;;;;;;5052185;28;20193;-69
2022/07/26 03:51:47;;;;;;;1.25;0.60;;;18.30;99.90;;;;;;5052534;28;20194;-73
2022/07/26 03:54:36;;;;;;;0.40;0.40;;;18.30;99.90;;;;;;5053538;28;20236;-73
2022/07/26 03:57:23;;;;;;;0.40;0.40;;;18.30;99.90;;;;;;5052760;28;20229;-68
2022/07/26 04:00:15;;;;;;;0.40;0.40;;;18.30;99.90;;;;;;5051212;28;20201;-69
2022/07/26 04:03:03;;;;;;;0.50;0.50;;;18.30;99.90;;;;;;5052058;28;20205;-71
2022/07/26 04:05:52;;;;;;;0.40;0.40;;;18.30;99.90;;;;;;5052749;28;20227;-68
2022/07/26 04:08:40;;;;;;;0.40;0.40;;;18.30;99.90;;;;;;5052694;28;20205;-73
2022/07/26 04:11:29;;;;;;;0.40;0.40;;;18.30;99.90;;;;;;5052400;28;20201;-69
2022/07/26 04:14:17;;;;;;;0.40;0.40;;;18.30;99.90;;;;;;5053182;28;20201;-72
2022/07/26 04:17:05;;;;;;;0.40;0.40;;;18.30;99.90;;;;;;5052415;28;20224;-70
2022/07/26 04:19:53;;;;;;;0.40;0.40;;;18.20;99.90;;;;;;5051569;28;20263;-72
2022/07/26 04:22:42;;;;;;;0.40;0.40;;;18.30;99.90;;;;;;5051802;28;20221;-72
2022/07/26 04:25:30;;;;;;;0.50;0.50;;;18.20;99.90;;;;;;5052353;28;20216;-70
2022/07/26 04:28:29;;;;;;;0.50;0.50;;;18.20;99.90;;;;;;5052181;28;20623;-73
2022/07/26 04:31:17;;;;;;;0.40;0.40;;;18.20;99.90;;;;;;5051601;28;20244;-73
2022/07/26 04:34:06;;;;;;;0.40;0.40;;;18.20;99.90;;;;;;5052162;28;20240;-73
2022/07/26 04:36:54;;;;;;;1.13;1.13;;;18.20;99.90;;;;;;5052238;28;20225;-71
2022/07/26 04:39:42;;;;;;;0.40;0.40;;;18.20;99.90;;;;;;5051756;28;20262;-71
2022/07/26 04:42:30;;;;;;;0.40;0.40;;;18.20;99.90;;;;;;5052505;28;20694;-73
2022/07/26 04:45:20;;;;;;;0.50;0.50;;;18.30;99.90;;;;;;5051455;28;20201;-72
2022/07/26 04:48:08;;;;;;;0.40;0.40;;;18.30;99.90;;;;;;5031570;28;20729;-70
2022/07/26 04:50:56;;;;;;;0.50;0.50;;;18.40;99.90;;;;;;5031818;28;20248;-70
2022/07/26 04:53:45;;;;;;;0.50;0.50;;;18.50;99.90;;;;;;5031389;28;20225;-72
2022/07/26 04:56:33;;;;;;;0.40;0.40;;;18.50;99.90;;;;;;5031897;28;20236;-72
2022/07/26 04:59:21;;;;;;;0.50;0.50;;;18.50;99.90;;;;;;5031117;28;20210;-72
2022/07/26 05:02:10;;;;;;;0.40;0.40;;;18.50;99.90;;;;;;5031288;28;20756;-73
2022/07/26 05:04:58;;;;;;;0.50;0.50;;;18.60;99.90;;;;;;5031068;28;20202;-71
2022/07/26 05:07:48;;;;;;;0.50;0.50;;;18.70;99.90;;;;;;5032612;28;20590;-72
2022/07/26 05:10:37;;;;;;;0.50;0.50;;;18.70;99.90;;;;;;5029968;28;20624;-72
2022/07/26 05:13:25;;;;;;;0.50;0.50;;;18.70;99.90;;;;;;5030918;28;20205;-71
2022/07/26 05:16:17;;;;;;;0.98;0.98;;;18.70;99.90;;;;;;5031326;28;20229;-71
2022/07/26 05:19:06;;;;;;;0.50;0.50;;;18.70;99.90;;;;;;5030244;28;20209;-71
2022/07/26 05:21:54;;;;;;;0.40;0.40;;;18.80;99.90;;;;;;5030783;28;20197;-68
2022/07/26 05:24:43;;;;;;;0.50;0.50;;;18.90;99.90;;;;;;5031300;28;20583;-72
2022/07/26 05:27:31;;;;;;;0.40;0.40;;;19.00;99.90;;;;;;5031272;28;20229;-73
2022/07/26 05:30:19;;;;;;;0.40;0.40;;;19.00;99.90;;;;;;5031143;28;20585;-71
2022/07/26 05:33:07;;;;;;;0.50;0.50;;;19.00;99.90;;;;;;5031186;28;20196;-70
2022/07/26 05:35:57;;;;;;;0.40;0.40;;;19.10;99.90;;;;;;5031393;28;20653;-68
2022/07/26 05:38:45;;;;;;;0.40;0.40;;;19.10;99.90;;;;;;5030420;28;20202;-69
2022/07/26 05:41:33;;;;;;;0.40;0.40;;;19.20;99.90;;;;;;5031064;28;20202;-71
2022/07/26 05:44:23;;;;;;;0.40;0.40;;;19.30;99.90;;;;;;5029803;28;20218;-67
2022/07/26 05:47:13;;;;;;;0.70;0.65;;;19.50;99.90;;;;;;5044779;28;20228;-69
2022/07/26 05:50:01;;;;;;;0.40;0.40;;;19.60;99.90;;;;;;5050111;28;20206;-68
2022/07/26 05:52:51;;;;;;;0.50;0.50;;;19.70;99.90;;;;;;5051092;28;20197;-69
2022/07/26 05:55:39;;;;;;;0.82;0.82;;;19.80;99.90;;;;;;5051442;28;20213;-69
2022/07/26 05:58:27;;;;;;;1.00;0.98;;;19.90;99.90;;;;;;5050974;28;20209;-68
2022/07/26 06:01:15;;;;;;;0.60;0.60;;;19.90;99.90;;;;;;5050729;28;20205;-69
2022/07/26 06:04:07;;;;;;;0.40;0.40;;;19.90;99.90;;;;;;5051300;28;20343;-70
2022/07/26 06:06:56;;;;;;;0.40;0.40;;;19.90;99.90;;;;;;5051414;28;20221;-70
2022/07/26 06:09:45;;;;;;;1.30;1.05;;;20.00;99.90;;;;;;5050553;28;20197;-71
2022/07/26 06:12:34;;;;;;;0.50;0.50;;;20.10;99.90;;;;;;5050663;28;20677;-70
2022/07/26 06:15:22;;;;;;;0.40;0.40;;;20.00;99.90;;;;;;5051453;28;20586;-69
2022/07/26 06:18:10;;;;;;;0.40;0.40;;;20.00;99.90;;;;;;5051286;28;20197;-68
2022/07/26 06:20:59;;;;;;;0.40;0.40;;;20.00;99.90;;;;;;5050412;28;20198;-70
2022/07/26 06:23:50;;;;;;;0.47;0.47;;;20.00;99.90;;;;;;5051209;28;20223;-73
2022/07/26 06:26:40;;;;;;;0.90;0.90;;;20.00;99.90;;;;;;5050814;28;20233;-69
2022/07/26 06:29:28;;;;;;;1.00;1.00;;;20.00;99.90;;;;;;5049908;28;20206;-69
2022/07/26 06:32:19;;;;;;;0.65;0.65;;;19.90;99.90;;;;;;5050642;28;20205;-68
2022/07/26 06:35:07;;;;;;;0.57;0.57;;;19.90;99.90;;;;;;5050021;28;20193;-69
2022/07/26 06:37:56;;;;;;;0.55;0.55;;;19.90;99.90;;;;;;5050769;28;20201;-72
2022/07/26 06:40:44;;;;;;;0.45;0.45;;;19.90;99.90;;;;;;5049738;28;20268;-69
2022/07/26 06:43:33;;;;;;;0.40;0.40;;;19.90;99.90;;;;;;5050532;28;20213;-69
2022/07/26 06:46:22;;;;;;;0.68;0.60;;;20.00;99.90;;;;;;5050951;28;20256;-69
2022/07/26 06:49:10;;;;;;;0.50;0.50;;;20.10;99.90;;;;;;5048072;28;20585;-71
2022/07/26 06:51:58;;;;;;;0.73;0.73;;;20.10;99.90;;;;;;5050241;28;20236;-69
2022/07/26 06:54:47;;;;;;;0.47;0.47;;;20.20;99.90;;;;;;5051816;28;20198;-69
2022/07/26 06:57:35;;;;;;;0.60;0.60;;;20.20;99.90;;;;;;5046812;28;20233;-69
2022/07/26 07:00:38;;;;;;;1.50;1.02;;;20.20;99.90;;;;;;5047132;28;20219;-70
2022/07/26 07:03:26;;;;;;;0.50;0.50;;;20.10;99.90;;;;;;5040603;28;20300;-68
2022/07/26 07:06:14;;;;;;;0.90;0.73;;;20.10;99.90;;;;;;5053538;28;20279;-67
2022/07/26 07:09:02;;;;;;;0.50;0.50;;;20.10;99.90;;;;;;5039408;28;20686;-69
2022/07/26 07:11:50;;;;;;;1.15;1.15;;;20.20;99.90;;;;;;5033847;28;20245;-70
2022/07/26 07:14:45;;;;;;;0.40;0.40;;;20.20;99.90;;;;;;5033188;28;20201;-68
2022/07/26 07:17:35;;;;;;;0.50;0.50;;;20.30;99.90;;;;;;5033230;28;20213;-69
2022/07/26 07:20:23;;;;;;;0.93;0.75;;;20.40;99.90;;;;;;5033770;28;20206;-70
2022/07/26 07:23:11;;;;;;;0.70;0.70;;;20.40;99.90;;;;;;5034153;28;20589;-68
2022/07/26 07:25:59;;;;;;;1.63;0.75;;;20.50;99.90;;;;;;5033121;28;20218;-69
2022/07/26 07:28:47;;;;;;;1.05;1.05;;;20.60;99.90;;;;;;5033023;28;20198;-68
2022/07/26 07:31:35;;;;;;;0.50;0.50;;;20.60;99.90;;;;;;5033399;28;20201;-71
2022/07/26 07:34:37;;;;;;;0.40;0.40;;;20.80;99.90;;;;;;5032947;28;20209;-68
2022/07/26 07:37:25;;;;;;;0.70;0.70;;;20.90;99.90;;;;;;5034357;28;20214;-70
2022/07/26 07:40:34;;;;;;;0.50;0.50;;;21.10;99.90;;;;;;5032591;28;20667;-67
2022/07/26 07:43:22;;;;;;;0.50;0.50;;;21.20;99.90;;;;;;5033212;28;20214;-67
2022/07/26 07:46:11;;;;;;;0.50;0.50;;;21.20;99.90;;;;;;5044307;28;20233;-68
2022/07/26 07:48:59;;;;;;;0.40;0.40;;;21.30;99.90;;;;;;5053641;28;20198;-67
2022/07/26 07:51:49;;;;;;;0.50;0.50;;;21.40;99.90;;;;;;5053848;28;20197;-68
2022/07/26 07:54:37;;;;;;;0.70;0.60;;;21.50;99.90;;;;;;5051783;28;20411;-70
2022/07/26 07:57:25;;;;;;;0.80;0.60;;;21.60;99.90;;;;;;5041351;28;20649;-68
2022/07/26 08:00:18;;;;;;;1.10;0.50;;;21.70;99.90;;;;;;5032871;28;20606;-69
2022/07/26 08:03:14;;;;;;;2.35;1.98;;;21.90;99.90;;;;;;5049762;28;20283;-68
2022/07/26 08:06:08;;;;;;;0.75;0.70;;;22.00;99.90;;;;;;5052486;28;20271;-68
2022/07/26 08:08:57;;;;;;;0.60;0.60;;;22.30;99.90;;;;;;5053151;28;20208;-70
2022/07/26 08:11:46;;;;;;;0.40;0.40;;;22.50;99.90;;;;;;5052506;28;20276;-69
2022/07/26 08:14:38;;;;;;;0.50;0.50;;;22.80;99.90;;;;;;5057842;28;20592;-67
2022/07/26 08:17:28;;;;;;;0.40;0.40;;;23.10;99.90;;;;;;5061039;28;20253;-69
2022/07/26 08:20:18;;;;;;;0.40;0.40;;;23.30;99.90;;;;;;5053173;28;20682;-68
2022/07/26 08:23:10;;;;;;;0.50;0.50;;;23.50;99.90;;;;;;5053601;28;20255;-69
2022/07/26 08:26:00;;;;;;;0.50;0.50;;;23.60;99.90;;;;;;5052911;28;20225;-67
2022/07/26 08:28:53;;;;;;;0.70;0.55;;;23.50;99.90;;;;;;5053917;28;20208;-68
2022/07/26 08:31:49;;;;;;;0.80;0.80;;;23.60;99.90;;;;;;5053118;28;20197;-66
2022/07/26 08:34:37;;;;;;;0.40;0.40;;;23.50;99.90;;;;;;5053374;28;20619;-66
2022/07/26 08:37:25;;;;;;;1.23;0.82;;;23.50;99.90;;;;;;5052719;28;20232;-68
2022/07/26 08:40:13;;;;;;;0.50;0.50;;;23.40;99.90;;;;;;5053093;28;20201;-67
2022/07/26 08:43:03;;;;;;;0.40;0.40;;;23.40;99.90;;;;;;5054079;28;20229;-67
2022/07/26 08:45:54;;;;;;;0.40;0.40;;;23.80;99.90;;;;;;5053876;28;20233;-66
2022/07/26 08:48:42;;;;;;;0.40;0.40;;;24.30;99.90;;;;;;5053278;28;20197;-67
2022/07/26 08:51:32;;;;;;;0.40;0.40;;;24.70;99.90;;;;;;5051955;28;20225;-67
2022/07/26 08:54:20;;;;;;;1.83;0.90;;;24.80;99.90;;;;;;5054247;28;20270;-67
2022/07/26 08:57:09;;;;;;;0.93;0.82;;;24.60;99.90;;;;;;5043784;28;20221;-68
2022/07/26 09:00:19;;;;;;;0.60;0.60;;;24.00;99.90;;;;;;5031679;28;20718;-70
2022/07/26 09:03:08;;;;;;;0.60;0.60;;;23.70;99.90;;;;;;5049569;28;20201;-68
2022/07/26 09:05:59;;;;;;;0.60;0.60;;;23.90;99.90;;;;;;5047460;28;20229;-68
2022/07/26 09:08:50;;;;;;;0.80;0.80;;;24.00;99.90;;;;;;5051597;28;20206;-69
2022/07/26 09:11:38;;;;;;;0.50;0.50;;;24.00;99.90;;;;;;5032634;28;20202;-67
2022/07/26 09:14:38;;;;;;;1.05;0.82;;;24.10;99.90;;;;;;5033011;28;20190;-68
2022/07/26 09:17:39;;;;;;;0.50;0.50;;;24.00;99.90;;;;;;5031568;28;20222;-67
2022/07/26 09:20:31;;;;;;;0.95;0.85;;;23.80;99.90;;;;;;5042652;28;20691;-69
2022/07/26 09:23:19;;;;;;;0.60;0.60;;;23.50;99.90;;;;;;5061245;28;20205;-68
2022/07/26 09:26:07;;;;;;;1.85;0.82;;;23.20;99.90;;;;;;5058858;28;20223;-68
2022/07/26 09:29:04;;;;;;;0.50;0.50;;;23.20;99.90;;;;;;5069857;28;20635;-68
2022/07/26 09:32:08;;;;;;;0.40;0.40;;;23.40;99.90;;;;;;5073403;28;20204;-68
2022/07/26 09:35:10;;;;;;;0.90;0.90;;;23.90;99.90;;;;;;5073033;28;20630;-68
2022/07/26 09:38:19;;;;;;;0.45;0.45;;;24.50;99.90;;;;;;5073632;28;20287;-69
2022/07/26 09:41:18;;;;;;;1.15;0.65;;;25.10;99.90;;;;;;5073476;28;20208;-69
2022/07/26 09:44:19;;;;;;;0.40;0.40;;;25.30;99.90;;;;;;5072916;28;20212;-69
2022/07/26 09:47:07;;;;;;;0.73;0.68;;;25.30;99.90;;;;;;5072862;28;20233;-68
2022/07/26 09:50:10;;;;;;;0.40;0.40;;;25.00;99.90;;;;;;5073579;28;20200;-69
2022/07/26 09:53:07;;;;;;;0.50;0.50;;;24.90;99.90;;;;;;5072693;28;20204;-68
2022/07/26 09:55:56;;;;;;;0.45;0.45;;;24.60;99.90;;;;;;5074898;28;20235;-68
2022/07/26 09:58:45;;;;;;;0.55;0.55;;;24.20;99.90;;;;;;5034414;28;20213;-69
2022/07/26 10:01:33;;;;;;;1.00;0.65;;;24.10;99.90;;;;;;5034061;28;20234;-68
2022/07/26 10:04:22;;;;;;;0.95;0.50;;;23.80;99.90;;;;;;5046796;28;20294;-69
2022/07/26 10:07:11;;;;;;;0.40;0.40;;;23.80;99.90;;;;;;5059304;28;20696;-69
2022/07/26 10:10:06;;;;;;;0.52;0.52;;;23.80;99.90;;;;;;5063325;28;20242;-69
2022/07/26 10:12:55;;;;;;;0.50;0.50;;;24.00;99.90;;;;;;5064374;28;20242;-69
2022/07/26 10:15:44;;;;;;;2.25;0.70;;;24.20;99.90;;;;;;5073652;28;20201;-68
2022/07/26 10:18:46;;;;;;;0.95;0.95;;;24.40;99.90;;;;;;5071325;28;20247;-66
2022/07/26 10:21:34;;;;;;;0.40;0.40;;;24.60;99.90;;;;;;5072462;28;20201;-66
2022/07/26 10:24:27;;;;;;;0.40;0.40;;;24.70;99.90;;;;;;5071196;28;20205;-68
2022/07/26 10:27:36;;;;;;;0.50;0.50;;;24.90;99.90;;;;;;5063757;28;20221;-67
2022/07/26 10:30:26;;;;;;;3.60;0.60;;;25.10;99.90;;;;;;5052770;28;20209;-66
2022/07/26 10:33:24;;;;;;;0.40;0.40;;;24.70;99.90;;;;;;5055028;28;20232;-65
2022/07/26 10:36:22;;;;;;;0.50;0.50;;;24.80;99.90;;;;;;5056055;28;20259;-66
2022/07/26 10:39:13;;;;;;;1.77;0.90;;;25.00;99.90;;;;;;5055354;28;20209;-66
2022/07/26 10:42:06;;;;;;;0.40;0.40;;;25.00;99.90;;;;;;5063590;28;20208;-67
2022/07/26 10:45:18;;;;;;;0.40;0.40;;;24.90;99.90;;;;;;5064039;28;20244;-67
2022/07/26 10:48:13;;;;;;;1.23;1.23;;;25.00;99.90;;;;;;5091388;28;20571;-66
2022/07/26 10:51:21;;;;;;;0.40;0.40;;;25.10;99.90;;;;;;5068676;28;20197;-66
2022/07/26 10:54:11;;;;;;;0.52;0.52;;;25.10;99.90;;;;;;5083156;28;20203;-67
2022/07/26 10:57:00;;;;;;;1.02;1.02;;;25.20;99.90;;;;;;5110356;28;20222;-66
2022/07/26 10:59:49;;;;;;;0.40;0.40;;;25.20;99.90;;;;;;5130141;28;20202;-68
2022/07/26 11:02:51;;;;;;;0.40;0.40;;;25.20;99.90;;;;;;5130095;28;20225;-67
2022/07/26 11:05:41;;;;;;;0.50;0.50;;;25.40;99.90;;;;;;5129152;28;20260;-66
2022/07/26 11:08:30;;;;;;;0.40;0.40;;;25.40;99.90;;;;;;5116133;28;20203;-67
2022/07/26 11:11:28;;;;;;;0.50;0.50;;;25.70;99.90;;;;;;5108313;28;20206;-66
2022/07/26 11:14:19;;;;;;;0.98;0.98;;;26.10;99.90;;;;;;5112448;28;20683;-66
2022/07/26 11:17:07;;;;;;;0.40;0.40;;;26.40;99.90;;;;;;5126310;28;20210;-67
2022/07/26 11:19:56;;;;;;;0.40;0.40;;;26.90;99.90;;;;;;5116779;28;23874;-66
2022/07/26 11:22:45;;;;;;;0.43;0.43;;;27.30;99.90;;;;;;5124984;28;20199;-65
2022/07/26 11:25:33;;;;;;;0.65;0.50;;;27.60;99.90;;;;;;5116465;28;20579;-67
2022/07/26 11:28:21;;;;;;;0.40;0.40;;;27.60;99.90;;;;;;5116998;28;20211;-67
2022/07/26 11:31:10;;;;;;;0.85;0.60;;;27.50;99.90;;;;;;5108476;28;20234;-67
2022/07/26 11:34:03;;;;;;;0.52;0.52;;;27.30;99.90;;;;;;5108835;28;20589;-67
2022/07/26 11:36:53;;;;;;;0.40;0.40;;;27.40;99.90;;;;;;5108347;28;20678;-67
2022/07/26 11:39:42;;;;;;;0.50;0.50;;;27.50;99.90;;;;;;5116685;27;20584;-66
2022/07/26 11:42:31;;;;;;;0.50;0.50;;;27.40;99.90;;;;;;5114820;28;20217;-66
2022/07/26 11:45:19;;;;;;;0.50;0.50;;;27.30;99.90;;;;;;5127465;28;20195;-66
2022/07/26 11:48:07;;;;;;;0.77;0.77;;;26.60;99.90;;;;;;5124910;28;20211;-66
2022/07/26 11:51:08;;;;;;;2.20;1.67;;;26.20;99.90;;;;;;5126845;28;20815;-66
2022/07/26 11:53:59;;;;;;;0.50;0.50;;;25.90;99.90;;;;;;5128187;28;20199;-67
2022/07/26 11:56:53;;;;;;;3.35;0.98;;;25.50;99.90;;;;;;5127131;28;20206;-67
2022/07/26 11:59:45;;;;;;;0.75;0.75;;;24.60;99.90;;;;;;5112264;28;20191;-70
2022/07/26 12:02:33;;;;;;;0.60;0.60;;;23.10;99.90;;;;;;5111699;28;20244;-69
2022/07/26 12:05:23;;;;;;;0.75;0.70;;;22.10;99.90;;;;;;5113161;28;20199;-71
2022/07/26 12:08:11;;;;;;;1.50;1.38;;;21.90;99.90;;;;;;5111000;28;20222;-69
2022/07/26 12:10:59;;;;;;;0.95;0.88;;;21.80;99.90;;;;;;5111716;28;20191;-67
2022/07/26 12:13:57;;;;;;;0.65;0.65;;;21.70;99.90;;;;;;5112668;28;20206;-68
2022/07/26 12:16:46;;;;;;;0.50;0.50;;;21.40;99.90;;;;;;5112877;28;20229;-68
2022/07/26 12:19:34;;;;;;;0.63;0.63;;;21.50;99.90;;;;;;5114005;28;20207;-68
2022/07/26 12:22:23;;;;;;;0.40;0.40;;;21.40;99.90;;;;;;5111705;28;20202;-68
2022/07/26 12:25:11;;;;;;;0.95;0.95;;;21.10;99.90;;;;;;5113281;28;20195;-69
2022/07/26 12:27:59;;;;;;;0.45;0.45;;;20.90;99.90;;;;;;5113582;28;20219;-69
2022/07/26 12:30:49;;;;;;;1.13;0.60;;;20.80;99.90;;;;;;5113563;28;20195;-66
2022/07/26 12:33:47;;;;;;;0.45;0.45;;;20.90;99.90;;;;;;5111464;28;20199;-70
2022/07/26 12:36:35;;;;;;;0.68;0.68;;;21.00;99.90;;;;;;5113144;28;20218;-68
2022/07/26 12:39:24;;;;;;;0.50;0.50;;;21.00;99.90;;;;;;5113763;28;20244;-69
2022/07/26 12:42:23;;;;;;;0.95;0.77;;;21.10;99.90;;;;;;5113408;28;20204;-68
2022/07/26 12:45:24;;;;;;;0.55;0.55;;;21.20;99.90;;;;;;5113385;28;20203;-67
2022/07/26 12:48:13;;;;;;;0.50;0.50;;;21.30;99.90;;;;;;5113913;28;20242;-69
2022/07/26 12:51:02;;;;;;;0.50;0.50;;;21.50;99.90;;;;;;5112123;28;20202;-69
2022/07/26 12:53:50;;;;;;;0.40;0.40;;;21.60;99.90;;;;;;5112625;27;20203;-67
2022/07/26 12:56:38;;;;;;;0.50;0.50;;;21.70;99.90;;;;;;5112297;28;20215;-68
2022/07/26 12:59:26;;;;;;;0.60;0.60;;;21.90;99.90;;;;;;5111421;28;20191;-71
2022/07/26 13:02:16;;;;;;;0.50;0.50;;;21.90;99.90;;;;;;5101632;28;20210;-69
2022/07/26 13:05:07;;;;;;;0.40;0.40;;;21.90;99.90;;;;;;5112755;28;20708;-68
2022/07/26 13:07:55;;;;;;;0.50;0.50;;;21.70;99.90;;;;;;5111272;28;20290;-69
2022/07/26 13:10:43;;;;;;;0.68;0.63;;;21.80;99.90;;;;;;5107928;28;20568;-68
2022/07/26 13:13:31;;;;;;;0.40;0.40;;;21.90;99.90;;;;;;5111314;28;20268;-67
2022/07/26 13:16:19;;;;;;;0.52;0.52;;;21.90;99.90;;;;;;5112694;28;20203;-69
2022/07/26 13:19:07;;;;;;;0.45;0.45;;;21.70;99.90;;;;;;5111849;28;20191;-67
2022/07/26 13:21:58;;;;;;;0.40;0.40;;;21.70;99.90;;;;;;5111450;28;20572;-68
2022/07/26 13:24:46;;;;;;;0.40;0.40;;;22.00;99.90;;;;;;5112693;28;20202;-68
2022/07/26 13:27:35;;;;;;;0.40;0.40;;;22.60;99.90;;;;;;5112823;28;20242;-67
2022/07/26 13:30:31;;;;;;;0.40;0.40;;;23.20;99.90;;;;;;5113100;28;20192;-66
2022/07/26 13:33:19;;;;;;;0.40;0.40;;;23.50;99.90;;;;;;5113627;28;20292;-67
2022/07/26 13:36:07;;;;;;;0.52;0.52;;;23.50;99.90;;;;;;5112824;28;20222;-67
2022/07/26 13:38:57;;;;;;;0.63;0.63;;;23.40;99.90;;;;;;5112483;28;20240;-68
2022/07/26 13:41:45;;;;;;;0.60;0.60;;;23.10;99.90;;;;;;5112841;28;20198;-67
2022/07/26 13:44:33;;;;;;;0.50;0.50;;;22.70;99.90;;;;;;5111572;28;20199;-70
2022/07/26 13:47:21;;;;;;;0.50;0.50;;;22.10;99.90;;;;;;5110463;28;20219;-67
2022/07/26 13:50:10;;;;;;;0.40;0.40;;;22.10;99.90;;;;;;5108847;28;20577;-67
2022/07/26 13:52:58;;;;;;;0.60;0.60;;;22.50;99.90;;;;;;5111544;28;20206;-68
2022/07/26 13:55:47;;;;;;;1.00;0.55;;;23.40;99.90;;;;;;5111639;28;20203;-67
2022/07/26 13:58:36;;;;;;;0.47;0.47;;;24.20;99.90;;;;;;5111392;28;20273;-68
2022/07/26 14:01:24;;;;;;;0.60;0.60;;;23.90;99.90;;;;;;5112356;28;20210;-68
2022/07/26 14:04:30;;;;;;;0.40;0.40;;;23.80;99.90;;;;;;5113135;28;20210;-66
2022/07/26 14:07:18;;;;;;;0.40;0.40;;;24.60;99.90;;;;;;5113013;28;20219;-66
2022/07/26 14:10:08;;;;;;;1.13;0.60;;;25.30;99.90;;;;;;5112147;28;20198;-66
2022/07/26 14:12:58;;;;;;;0.45;0.45;;;25.30;99.90;;;;;;5113189;28;20214;-67
2022/07/26 14:15:46;;;;;;;0.60;0.50;;;25.40;99.90;;;;;;5113561;28;20204;-66
2022/07/26 14:18:34;;;;;;;0.47;0.47;;;25.50;99.90;;;;;;5113063;28;20196;-66
2022/07/26 14:21:23;;;;;;;0.40;0.40;;;26.00;99.90;;;;;;5112679;28;20203;-65
2022/07/26 14:24:11;;;;;;;0.50;0.50;;;26.10;99.90;;;;;;5112104;28;20216;-66
2022/07/26 14:27:00;;;;;;;0.50;0.50;;;25.60;99.90;;;;;;5112574;28;20240;-67
2022/07/26 14:29:51;;;;;;;0.50;0.50;;;25.30;99.90;;;;;;5112789;28;20762;-66
2022/07/26 14:32:39;;;;;;;0.40;0.40;;;25.10;99.90;;;;;;5112328;28;20585;-67
2022/07/26 14:35:28;;;;;;;0.40;0.40;;;25.30;99.90;;;;;;5111695;28;20265;-67
2022/07/26 14:38:16;;;;;;;0.50;0.50;;;25.10;99.90;;;;;;5106917;28;20203;-68
2022/07/26 14:41:15;;;;;;;0.75;0.75;;;24.90;99.90;;;;;;5098938;28;20692;-67
2022/07/26 14:44:04;;;;;;;0.63;0.63;;;24.80;99.90;;;;;;5092950;28;20215;-67
2022/07/26 14:46:54;;;;;;;0.40;0.40;;;24.50;99.90;;;;;;5098336;28;20226;-66
2022/07/26 14:49:42;;;;;;;0.82;0.82;;;25.10;99.90;;;;;;5112768;28;20777;-67